createdAt,value
2018-11-22T00:05:21.110Z,46.33
2018-11-22T00:11:25.743Z,46.90
2018-11-22T00:17:30.369Z,46.10
2018-11-22T00:23:35.014Z,45.37
2018-11-22T00:29:39.671Z,45.27
2018-11-22T00:35:44.296Z,44.67
2018-11-22T00:41:48.912Z,45.10
2018-11-22T00:47:53.557Z,46.90
2018-11-22T00:53:58.213Z,40.43
2018-11-22T01:00:02.875Z,44.93
2018-11-22T01:06:07.520Z,35.83
2018-11-22T01:12:12.170Z,42.80
2018-11-22T01:18:16.849Z,39.60
2018-11-22T01:24:21.492Z,40.70
2018-11-22T01:30:26.726Z,39.50
2018-11-22T01:36:31.373Z,44.00
2018-11-22T01:42:36.024Z,40.80
2018-11-22T01:48:40.639Z,44.30
2018-11-22T01:54:45.253Z,47.60
2018-11-22T02:00:49.986Z,46.90
2018-11-22T02:06:54.614Z,50.60
2018-11-22T02:12:59.241Z,42.57
2018-11-22T02:19:03.888Z,42.00
2018-11-22T02:25:09.979Z,43.27
2018-11-22T02:31:14.631Z,39.93
2018-11-22T02:37:19.271Z,35.33
2018-11-22T02:43:23.888Z,42.80
2018-11-22T02:49:28.588Z,39.23
2018-11-22T02:55:33.253Z,37.50
2018-11-22T03:01:37.911Z,36.70
2018-11-22T03:07:42.591Z,41.60
2018-11-22T03:13:47.204Z,45.83
2018-11-22T03:19:51.837Z,49.70
2018-11-22T03:25:56.500Z,40.90
2018-11-22T03:32:01.141Z,39.83
2018-11-22T03:38:06.014Z,44.17
2018-11-22T03:44:10.657Z,43.67
2018-11-22T03:50:17.651Z,41.50
2018-11-22T03:56:22.265Z,38.00
2018-11-22T04:02:26.842Z,33.77
2018-11-22T04:08:31.430Z,38.70
2018-11-22T04:14:38.975Z,40.93
2018-11-22T04:20:43.583Z,43.03
2018-11-22T04:26:48.141Z,39.07
2018-11-22T04:32:53.215Z,41.83
2018-11-22T04:38:57.777Z,36.37
2018-11-22T04:45:02.330Z,34.77
2018-11-22T04:51:07.152Z,35.50
2018-11-22T04:57:11.696Z,31.50
2018-11-22T05:03:16.272Z,31.30
2018-11-22T05:09:20.844Z,38.20
2018-11-22T05:15:27.114Z,34.30
2018-11-22T05:21:31.615Z,32.23
2018-11-22T05:27:36.208Z,28.77
2018-11-22T05:33:41.127Z,33.00
2018-11-22T05:39:46.683Z,28.30
2018-11-22T05:45:51.238Z,49.80
2018-11-22T05:51:57.389Z,32.17
2018-11-22T05:58:02.162Z,35.03
2018-11-22T12:21:24.137Z,30.23
2018-11-22T12:27:29.155Z,28.33
2018-11-22T12:33:40.270Z,30.30
2018-11-22T12:39:45.023Z,34.10
2018-11-22T12:45:50.272Z,37.70
2018-11-22T12:51:55.294Z,34.10
2018-11-22T12:57:59.989Z,32.43
2018-11-22T13:04:04.708Z,30.67
2018-11-22T13:10:12.573Z,34.03
2018-11-22T13:16:17.609Z,33.80
2018-11-22T13:22:22.234Z,37.83
2018-11-22T13:28:27.196Z,40.03
2018-11-22T13:34:31.860Z,36.07
2018-11-22T13:40:36.588Z,42.00
2018-11-22T13:46:41.895Z,33.93
2018-11-22T13:52:48.183Z,37.77
2018-11-22T13:58:52.961Z,41.77
2018-11-22T14:04:57.721Z,45.77
2018-11-22T14:11:02.389Z,49.33
2018-11-22T14:17:07.813Z,45.07
2018-11-22T14:23:12.467Z,44.40
2018-11-22T14:29:17.907Z,48.70
2018-11-22T14:35:23.308Z,51.03
2018-11-22T14:41:28.393Z,52.47
2018-11-22T14:47:33.201Z,50.50
2018-11-22T14:53:37.943Z,52.77
2018-11-22T14:59:43.020Z,54.70
2018-11-22T15:05:47.723Z,54.20
2018-11-22T15:11:53.089Z,61.97
2018-11-22T15:17:57.754Z,55.60
2018-11-22T15:24:02.452Z,57.60
2018-11-22T15:30:10.689Z,54.73
2018-11-22T15:36:15.363Z,51.33
2018-11-22T15:42:20.077Z,61.60
2018-11-22T15:48:24.786Z,60.47
2018-11-22T15:54:30.099Z,51.27
2018-11-22T16:00:35.694Z,51.90
2018-11-22T16:06:40.402Z,47.50
2018-11-22T16:12:45.889Z,51.67
2018-11-22T16:18:51.167Z,54.90
2018-11-22T16:24:55.850Z,59.53
2018-11-22T16:31:00.806Z,55.77
2018-11-22T16:37:05.586Z,61.07
2018-11-22T16:43:10.966Z,57.10
2018-11-22T16:49:15.767Z,61.27
2018-11-22T16:55:21.303Z,60.17
2018-11-22T17:01:27.811Z,64.47
2018-11-22T17:07:31.486Z,57.50
2018-11-22T17:13:36.228Z,74.00
2018-11-22T17:19:40.891Z,73.63
2018-11-22T17:25:45.622Z,76.03
2018-11-22T17:31:50.952Z,68.33
2018-11-22T17:37:57.519Z,67.13
2018-11-22T17:44:02.276Z,70.37
2018-11-22T17:50:09.766Z,65.50
2018-11-22T17:56:14.534Z,81.93
2018-11-22T18:02:19.644Z,74.67
2018-11-22T18:08:24.820Z,74.70
2018-11-22T18:14:30.232Z,75.80
2018-11-22T18:20:34.909Z,72.00
2018-11-22T18:26:39.628Z,76.23
2018-11-22T18:32:45.378Z,79.57
2018-11-22T18:38:50.322Z,80.00
2018-11-22T18:44:55.295Z,66.23
2018-11-22T18:50:59.958Z,69.63
2018-11-22T18:57:05.050Z,74.77
2018-11-22T19:03:17.231Z,68.17
2018-11-22T19:09:22.346Z,64.60
2018-11-22T19:15:28.425Z,72.77
2018-11-22T19:21:33.099Z,60.20
2018-11-22T19:27:38.903Z,62.10
2018-11-22T19:33:43.966Z,55.83
2018-11-22T19:39:48.677Z,68.10
2018-11-22T19:45:53.397Z,65.23
2018-11-22T19:51:58.741Z,76.63
2018-11-22T19:58:04.770Z,84.47
2018-11-22T20:04:09.462Z,72.43
2018-11-22T20:10:18.554Z,65.80
2018-11-22T20:16:23.582Z,65.60
2018-11-22T20:22:28.585Z,65.57
2018-11-22T20:28:33.615Z,76.50
2018-11-22T20:34:38.491Z,71.80
2018-11-22T20:40:43.122Z,75.50
2018-11-22T20:46:48.182Z,79.97
2018-11-22T20:52:53.428Z,77.00
2018-11-22T20:58:58.154Z,79.43
2018-11-22T21:05:02.853Z,80.50
2018-11-22T21:11:08.348Z,74.80
2018-11-22T21:17:13.041Z,74.77
2018-11-22T21:23:17.696Z,73.43
2018-11-22T21:29:22.605Z,78.70
2018-11-22T21:35:28.073Z,71.57
2018-11-22T21:41:32.783Z,79.37
2018-11-22T21:47:37.788Z,76.70
2018-11-22T21:53:42.569Z,79.37
2018-11-22T21:59:47.222Z,69.20
2018-11-22T22:05:51.867Z,74.33
2018-11-22T22:11:56.535Z,78.77
2018-11-22T22:18:01.288Z,76.40
2018-11-22T22:24:07.146Z,89.77
2018-11-22T22:30:14.961Z,78.97
2018-11-22T22:36:20.022Z,92.07
2018-11-22T22:42:24.770Z,76.60
2018-11-22T22:48:29.722Z,78.50
2018-11-22T22:54:34.658Z,75.23
2018-11-22T23:00:42.169Z,80.20
2018-11-22T23:06:46.894Z,81.87
2018-11-22T23:12:51.732Z,67.73
2018-11-22T23:18:57.252Z,80.43
2018-11-22T23:25:01.934Z,69.63
2018-11-22T23:31:06.905Z,64.07
2018-11-22T23:37:11.593Z,73.83
2018-11-22T23:43:16.238Z,62.23
2018-11-22T23:49:20.919Z,66.93
2018-11-22T23:55:25.675Z,69.00
